| time (UTC) | temp F | wind direction | speed MPH | gust MPH | rain 1hr in | rain 24hr in | rain mn in | humidity % | barometer mb |
| 20260507134519 | 49 | 260 | 1.0 | 4.0 | 0.00 | 0.00 | 0.00 | 47 | 1010.5 |
| 20260507133558 | 47 | 260 | 1.0 | 2.0 | 0.00 | 0.00 | 0.00 | 54 | 1010.4 |
| 20260507132719 | 45 | 260 | 1.0 | 2.0 | 0.00 | 0.00 | 0.00 | 54 | 1010.4 |
| 20260507131759 | 39 | 260 | 2.0 | 3.0 | 0.00 | 0.00 | 0.00 | 63 | 1010.3 |
| 20260507130858 | 36 | 260 | 2.0 | 3.0 | 0.00 | 0.00 | 0.00 | 69 | 1010.2 |
| 20260507125959 | 34 | 260 | 1.0 | 2.0 | 0.00 | 0.00 | 0.00 | 71 | 1010.1 |
| 20260507125359 | 33 | 260 | 0.0 | 1.0 | 0.00 | 0.00 | 0.00 | 73 | 1010.1 |
| 20260507124458 | 31 | 260 | 0.0 | 2.0 | 0.00 | 0.00 | 0.00 | 75 | 1010.0 |
| 20260507123558 | 30 | 260 | 1.0 | 2.0 | 0.00 | 0.00 | 0.00 | 74 | 1009.9 |
| 20260507122658 | 28 | 260 | 1.0 | 2.0 | 0.00 | 0.00 | 0.00 | 74 | 1009.8 |
| 20260507121759 | 28 | 272 | 1.0 | 3.0 | 0.00 | 0.00 | 0.00 | 74 | 1009.8 |
| 20260507120919 | 27 | 311 | 1.0 | 2.0 | 0.00 | 0.00 | 0.00 | 74 | 1009.8 |
| 20260507115958 | 27 | 359 | 1.0 | 3.0 | 0.00 | 0.00 | 0.00 | 73 | 1009.5 |
| 20260507115358 | 27 | 359 | 2.0 | 3.0 | 0.00 | 0.00 | 0.00 | 73 | 1009.6 |
| 20260507114458 | 27 | 357 | 1.0 | 3.0 | 0.00 | 0.00 | 0.00 | 73 | 1009.5 |
| 20260507113558 | 26 | 358 | 1.0 | 3.0 | 0.00 | 0.00 | 0.00 | 74 | 1009.4 |
| 20260507112719 | 26 | 360 | 3.0 | 4.0 | 0.00 | 0.00 | 0.00 | 74 | 1009.4 |
| 20260507111800 | 26 | 359 | 2.0 | 4.0 | 0.00 | 0.00 | 0.00 | 73 | 1009.2 |
| 20260507110919 | 26 | 360 | 2.0 | 4.0 | 0.00 | 0.00 | 0.00 | 73 | 1009.2 |
| 20260507105958 | 27 | 360 | 3.0 | 4.0 | 0.00 | 0.00 | 0.00 | 72 | 1009.1 |
| 20260507105358 | 27 | 360 | 3.0 | 4.0 | 0.00 | 0.00 | 0.00 | 72 | 1009.0 |
| 20260507104459 | 27 | 360 | 1.0 | 3.0 | 0.00 | 0.00 | 0.00 | 71 | 1008.8 |
| 20260507103600 | 27 | 360 | 0.0 | 1.0 | 0.00 | 0.00 | 0.00 | 71 | 1008.9 |
| 20260507102659 | 27 | 0 | 0.0 | 0.0 | 0.00 | 0.00 | 0.00 | 71 | 1008.8 |
| 20260507101819 | 27 | 360 | 0.0 | 2.0 | 0.00 | 0.00 | 0.00 | 71 | 1008.8 |
| 20260507100900 | 28 | 360 | 0.0 | 1.0 | 0.00 | 0.00 | 0.00 | 70 | 1008.8 |
| 20260507095959 | 27 | 359 | 1.0 | 3.0 | 0.00 | 0.00 | 0.00 | 71 | 1008.8 |
| 20260507095359 | 27 | 358 | 2.0 | 4.0 | 0.00 | 0.00 | 0.00 | 72 | 1008.9 |
| 20260507094459 | 27 | 356 | 4.0 | 5.0 | 0.00 | 0.00 | 0.00 | 71 | 1008.9 |
| 20260507093600 | 28 | 358 | 3.0 | 4.0 | 0.00 | 0.00 | 0.00 | 71 | 1008.8 |
| 20260507092720 | 28 | 358 | 3.0 | 5.0 | 0.00 | 0.00 | 0.00 | 70 | 1008.7 |
| 20260507091759 | 28 | 359 | 2.0 | 4.0 | 0.00 | 0.00 | 0.00 | 71 | 1008.7 |
| 20260507090859 | 28 | 358 | 2.0 | 3.0 | 0.00 | 0.00 | 0.00 | 71 | 1008.7 |
| 20260507085959 | 28 | 359 | 2.0 | 4.0 | 0.00 | 0.00 | 0.00 | 71 | 1008.7 |
| 20260507085420 | 27 | 357 | 3.0 | 5.0 | 0.00 | 0.00 | 0.00 | 72 | 1008.6 |
| 20260507084520 | 27 | 359 | 3.0 | 5.0 | 0.00 | 0.00 | 0.00 | 70 | 1008.6 |
| 20260507083559 | 28 | 360 | 2.0 | 3.0 | 0.00 | 0.00 | 0.00 | 70 | 1008.5 |
| 20260507082700 | 28 | 360 | 1.0 | 4.0 | 0.00 | 0.00 | 0.00 | 70 | 1008.5 |
| 20260507081820 | 28 | 360 | 2.0 | 4.0 | 0.00 | 0.00 | 0.00 | 70 | 1008.5 |
| 20260507080900 | 27 | 360 | 1.0 | 2.0 | 0.00 | 0.00 | 0.00 | 70 | 1008.5 |
| 20260507075959 | 28 | 360 | 2.0 | 4.0 | 0.00 | 0.00 | 0.00 | 70 | 1008.7 |
| 20260507075359 | 28 | 360 | 2.0 | 4.0 | 0.00 | 0.00 | 0.00 | 69 | 1008.7 |
| 20260507074500 | 28 | 360 | 2.0 | 4.0 | 0.00 | 0.00 | 0.00 | 69 | 1008.9 |
| 20260507073559 | 29 | 360 | 3.0 | 6.0 | 0.00 | 0.00 | 0.00 | 68 | 1009.0 |
| 20260507072659 | 29 | 360 | 3.0 | 6.0 | 0.00 | 0.00 | 0.00 | 66 | 1008.9 |
| 20260507071759 | 30 | 360 | 1.0 | 3.0 | 0.00 | 0.00 | 0.00 | 66 | 1008.9 |
| 20260507070859 | 30 | 360 | 0.0 | 1.0 | 0.00 | 0.00 | 0.00 | 64 | 1008.9 |
| 20260507070020 | 30 | 360 | 1.0 | 3.0 | 0.00 | 0.00 | 0.00 | 64 | 1009.0 |
| 20260507065359 | 31 | 360 | 2.0 | 4.0 | 0.00 | 0.00 | 0.00 | 64 | 1008.8 |
| 20260507064500 | 32 | 360 | 1.0 | 4.0 | 0.00 | 0.00 | 0.00 | 62 | 1009.1 |
| 20260507063559 | 33 | 360 | 1.0 | 4.0 | 0.00 | 0.00 | 0.00 | 59 | 1009.1 |
| 20260507062700 | 34 | 360 | 2.0 | 3.0 | 0.00 | 0.00 | 0.00 | 58 | 1009.1 |
| 20260507061800 | 36 | 360 | 2.0 | 3.0 | 0.00 | 0.00 | 0.00 | 55 | 1009.4 |
| 20260507060900 | 38 | 360 | 2.0 | 3.0 | 0.00 | 0.00 | 0.00 | 53 | 1009.4 |
| 20260507060000 | 38 | 360 | 2.0 | 4.0 | 0.00 | 0.00 | 0.00 | 52 | 1009.3 |
| 20260507055359 | 38 | 360 | 1.0 | 4.0 | 0.00 | 0.00 | 0.00 | 51 | 1009.4 |
| 20260507054521 | 38 | 2 | 5.0 | 10.0 | 0.00 | 0.00 | 0.00 | 52 | 1009.5 |
| 20260507053600 | 37 | 359 | 3.0 | 6.0 | 0.00 | 0.00 | 0.00 | 53 | 1009.3 |
| 20260507052701 | 37 | 140 | 3.0 | 5.0 | 0.00 | 0.00 | 0.00 | 54 | 1009.3 |
| 20260507051801 | 37 | 154 | 1.0 | 5.0 | 0.00 | 0.00 | 0.00 | 54 | 1009.4 |
| 20260507050901 | 37 | 153 | 1.0 | 3.0 | 0.00 | 0.00 | 0.00 | 53 | 1009.4 |
| 20260507050000 | 38 | 153 | 0.0 | 2.0 | 0.00 | 0.00 | 0.00 | 53 | 1009.5 |
| 20260507045400 | 38 | 153 | 0.0 | 2.0 | 0.00 | 0.00 | 0.00 | 52 | 1009.6 |
| 20260507044500 | 39 | 153 | 2.0 | 3.0 | 0.00 | 0.00 | 0.00 | 53 | 1009.8 |
| 20260507043600 | 40 | 153 | 2.0 | 4.0 | 0.00 | 0.00 | 0.00 | 50 | 1009.8 |
| 20260507042700 | 41 | 153 | 3.0 | 5.0 | 0.00 | 0.00 | 0.00 | 49 | 1009.9 |
| 20260507041800 | 40 | 153 | 3.0 | 4.0 | 0.00 | 0.00 | 0.00 | 48 | 1010.1 |
| 20260507040900 | 40 | 153 | 2.0 | 5.0 | 0.00 | 0.00 | 0.00 | 49 | 1010.2 |
| 20260507040000 | 40 | 153 | 1.0 | 2.0 | 0.00 | 0.00 | 0.00 | 50 | 1010.3 |
| 20260507035400 | 41 | 153 | 1.0 | 3.0 | 0.00 | 0.00 | 0.00 | 51 | 1010.4 |
| 20260507034500 | 41 | 153 | 2.0 | 3.0 | 0.00 | 0.00 | 0.00 | 52 | 1010.4 |
| 20260507033600 | 41 | 153 | 2.0 | 5.0 | 0.00 | 0.00 | 0.00 | 51 | 1010.5 |
| 20260507032721 | 42 | 153 | 3.0 | 4.0 | 0.00 | 0.00 | 0.00 | 50 | 1010.5 |
| 20260507031800 | 42 | 153 | 3.0 | 6.0 | 0.00 | 0.00 | 0.00 | 49 | 1010.6 |
| 20260507030900 | 43 | 150 | 3.0 | 5.0 | 0.00 | 0.00 | 0.00 | 47 | 1010.7 |
| 20260507030000 | 43 | 150 | 3.0 | 6.0 | 0.00 | 0.00 | 0.00 | 46 | 1010.8 |
| 20260507025400 | 44 | 149 | 4.0 | 6.0 | 0.00 | 0.00 | 0.00 | 46 | 1010.9 |
| 20260507024500 | 45 | 148 | 2.0 | 5.0 | 0.00 | 0.00 | 0.00 | 45 | 1010.8 |
| 20260507023600 | 45 | 147 | 4.0 | 7.0 | 0.00 | 0.00 | 0.00 | 44 | 1010.9 |
| 20260507022700 | 47 | 133 | 4.0 | 6.0 | 0.00 | 0.00 | 0.00 | 43 | 1010.9 |
| 20260507021801 | 48 | 126 | 3.0 | 4.0 | 0.00 | 0.00 | 0.00 | 42 | 1011.0 |
| 20260507020921 | 50 | 126 | 2.0 | 3.0 | 0.00 | 0.00 | 0.00 | 38 | 1011.0 |
| 20260507020000 | 50 | 126 | 2.0 | 3.0 | 0.00 | 0.00 | 0.00 | 36 | 1011.0 |
| 20260507015400 | 51 | 126 | 2.0 | 3.0 | 0.00 | 0.00 | 0.00 | 36 | 1011.1 |
| 20260507014500 | 52 | 126 | 2.0 | 3.0 | 0.00 | 0.00 | 0.00 | 36 | 1011.0 |
| 20260507013601 | 52 | 126 | 3.0 | 4.0 | 0.00 | 0.00 | 0.00 | 35 | 1011.1 |
| 20260507012701 | 53 | 126 | 2.0 | 4.0 | 0.00 | 0.00 | 0.00 | 34 | 1011.1 |
| 20260507011822 | 53 | 126 | 3.0 | 6.0 | 0.00 | 0.00 | 0.00 | 33 | 1011.1 |
| 20260507010901 | 53 | 126 | 3.0 | 5.0 | 0.00 | 0.00 | 0.00 | 31 | 1011.0 |
| 20260507010001 | 53 | 126 | 3.0 | 4.0 | 0.00 | 0.00 | 0.00 | 29 | 1011.1 |
| 20260507005422 | 53 | 125 | 3.0 | 6.0 | 0.00 | 0.00 | 0.00 | 30 | 1011.1 |
| 20260507004501 | 54 | 115 | 4.0 | 8.0 | 0.00 | 0.00 | 0.00 | 27 | 1011.0 |
| 20260507003601 | 54 | 104 | 6.0 | 9.0 | 0.00 | 0.00 | 0.00 | 30 | 1011.0 |
| 20260507002702 | 54 | 107 | 6.0 | 9.0 | 0.00 | 0.00 | 0.00 | 28 | 1011.1 |
| 20260507001801 | 55 | 104 | 5.0 | 8.0 | 0.00 | 0.00 | 0.00 | 30 | 1011.2 |
| 20260507000901 | 55 | 108 | 4.0 | 9.0 | 0.00 | 0.00 | 0.00 | 28 | 1011.4 |
| 20260507000003 | 55 | 93 | 4.0 | 9.0 | 0.00 | 0.00 | 0.00 | 27 | 1011.5 |
| 20260506235401 | 55 | 91 | 4.0 | 8.0 | 0.00 | 0.00 | 0.00 | 28 | 1011.7 |
| 20260506234501 | 54 | 88 | 4.0 | 9.0 | 0.00 | 0.00 | 0.00 | 27 | 1011.8 |
| 20260506233601 | 55 | 81 | 4.0 | 9.0 | 0.00 | 0.00 | 0.00 | 28 | 1012.0 |
| 20260506232701 | 55 | 124 | 4.0 | 9.0 | 0.00 | 0.00 | 0.00 | 26 | 1012.1 |
| 20260506231801 | 54 | 106 | 4.0 | 9.0 | 0.00 | 0.00 | 0.00 | 27 | 1012.1 |
| 20260506230901 | 55 | 130 | 3.0 | 8.0 | 0.00 | 0.00 | 0.00 | 27 | 1012.1 |
| 20260506230002 | 55 | 145 | 3.0 | 9.0 | 0.00 | 0.00 | 0.00 | 26 | 1012.3 |
| 20260506225401 | 55 | 142 | 5.0 | 9.0 | 0.00 | 0.00 | 0.00 | 28 | 1012.3 |
| 20260506224501 | 54 | 102 | 3.0 | 7.0 | 0.00 | 0.00 | 0.00 | 26 | 1012.4 |
| 20260506223601 | 55 | 95 | 6.0 | 10.0 | 0.00 | 0.00 | 0.00 | 26 | 1012.4 |
| 20260506222702 | 56 | 99 | 6.0 | 15.0 | 0.00 | 0.00 | 0.00 | 28 | 1012.5 |
| 20260506221802 | 56 | 181 | 3.0 | 8.0 | 0.00 | 0.00 | 0.00 | 29 | 1012.6 |
| 20260506220901 | 56 | 47 | 2.0 | 5.0 | 0.00 | 0.00 | 0.00 | 27 | 1012.8 |
| 20260506220001 | 57 | 171 | 4.0 | 10.0 | 0.00 | 0.00 | 0.00 | 27 | 1013.0 |
| 20260506215401 | 56 | 109 | 4.0 | 10.0 | 0.00 | 0.00 | 0.00 | 29 | 1013.1 |
| 20260506214501 | 55 | 117 | 3.0 | 7.0 | 0.00 | 0.00 | 0.00 | 26 | 1013.3 |
| 20260506213624 | 55 | 123 | 4.0 | 9.0 | 0.00 | 0.00 | 0.00 | 27 | 1013.5 |
| 20260506212701 | 56 | 100 | 8.0 | 12.0 | 0.00 | 0.00 | 0.00 | 28 | 1013.7 |
| 20260506211803 | 55 | 130 | 4.0 | 10.0 | 0.00 | 0.00 | 0.00 | 27 | 1013.8 |
| 20260506210902 | 55 | 163 | 5.0 | 11.0 | 0.00 | 0.00 | 0.00 | 27 | 1013.9 |
| 20260506210023 | 55 | 132 | 4.0 | 9.0 | 0.00 | 0.00 | 0.00 | 27 | 1014.1 |
| 20260506205423 | 54 | 326 | 4.0 | 10.0 | 0.00 | 0.00 | 0.00 | 28 | 1014.3 |
| 20260506204502 | 54 | 287 | 5.0 | 10.0 | 0.00 | 0.00 | 0.00 | 26 | 1014.3 |
| 20260506203622 | 54 | 55 | 7.0 | 14.0 | 0.00 | 0.00 | 0.00 | 27 | 1014.4 |
| 20260506202702 | 54 | 78 | 5.0 | 11.0 | 0.00 | 0.00 | 0.00 | 28 | 1014.5 |
| 20260506201803 | 54 | 324 | 5.0 | 11.0 | 0.00 | 0.00 | 0.00 | 29 | 1014.6 |
| 20260506200922 | 53 | 337 | 6.0 | 14.0 | 0.00 | 0.00 | 0.00 | 27 | 1014.7 |
| 20260506200002 | 53 | 44 | 3.0 | 9.0 | 0.00 | 0.00 | 0.00 | 29 | 1014.8 |
| 20260506195403 | 53 | 35 | 4.0 | 12.0 | 0.00 | 0.00 | 0.00 | 28 | 1014.9 |
| 20260506194524 | 54 | 52 | 6.0 | 18.0 | 0.00 | 0.00 | 0.00 | 31 | 1015.0 |
| 20260506193603 | 52 | 114 | 5.0 | 14.0 | 0.00 | 0.00 | 0.00 | 30 | 1015.0 |
| 20260506192702 | 52 | 10 | 6.0 | 15.0 | 0.00 | 0.00 | 0.00 | 28 | 1015.2 |
| 20260506191802 | 52 | 297 | 4.0 | 11.0 | 0.00 | 0.00 | 0.00 | 31 | 1015.3 |
| 20260506190903 | 52 | 355 | 6.0 | 14.0 | 0.00 | 0.00 | 0.00 | 29 | 1015.6 |
| 20260506190003 | 51 | 345 | 5.0 | 11.0 | 0.00 | 0.00 | 0.00 | 31 | 1015.6 |
| 20260506185402 | 52 | 348 | 8.0 | 14.0 | 0.00 | 0.00 | 0.00 | 30 | 1015.6 |
| 20260506184523 | 51 | 343 | 6.0 | 14.0 | 0.00 | 0.00 | 0.00 | 30 | 1015.7 |
| 20260506183623 | 52 | 341 | 7.0 | 16.0 | 0.00 | 0.00 | 0.00 | 28 | 1016.1 |
| 20260506182702 | 52 | 13 | 6.0 | 14.0 | 0.00 | 0.00 | 0.00 | 31 | 1016.0 |
| 20260506181802 | 50 | 29 | 5.0 | 12.0 | 0.00 | 0.00 | 0.00 | 33 | 1016.2 |
| 20260506180902 | 51 | 310 | 8.0 | 16.0 | 0.00 | 0.00 | 0.00 | 29 | 1016.4 |
| 20260506180023 | 51 | 346 | 7.0 | 14.0 | 0.00 | 0.00 | 0.00 | 33 | 1016.5 |
| 20260506175402 | 50 | 349 | 9.0 | 18.0 | 0.00 | 0.00 | 0.00 | 31 | 1016.7 |
| 20260506174502 | 50 | 355 | 7.0 | 14.0 | 0.00 | 0.00 | 0.00 | 32 | 1016.7 |
| 20260506173602 | 49 | 308 | 8.0 | 19.0 | 0.00 | 0.00 | 0.00 | 31 | 1016.9 |
| 20260506172724 | 49 | 352 | 8.0 | 18.0 | 0.00 | 0.00 | 0.00 | 32 | 1017.0 |
| 20260506171802 | 49 | 337 | 8.0 | 17.0 | 0.00 | 0.00 | 0.00 | 31 | 1017.1 |
| 20260506170903 | 48 | 324 | 11.0 | 20.0 | 0.00 | 0.00 | 0.00 | 32 | 1017.2 |
| 20260506170023 | 49 | 320 | 12.0 | 20.0 | 0.00 | 0.00 | 0.00 | 31 | 1017.2 |
| 20260506165402 | 48 | 331 | 12.0 | 25.0 | 0.00 | 0.00 | 0.00 | 32 | 1017.4 |
| 20260506164504 | 48 | 323 | 13.0 | 21.0 | 0.00 | 0.00 | 0.00 | 32 | 1017.4 |
| 20260506163603 | 47 | 332 | 12.0 | 21.0 | 0.00 | 0.00 | 0.00 | 32 | 1017.3 |
| 20260506162724 | 47 | 337 | 9.0 | 16.0 | 0.00 | 0.00 | 0.00 | 32 | 1017.6 |
| 20260506161802 | 47 | 310 | 12.0 | 20.0 | 0.00 | 0.00 | 0.00 | 32 | 1017.5 |
| 20260506160902 | 46 | 315 | 10.0 | 18.0 | 0.00 | 0.00 | 0.00 | 33 | 1017.6 |
| 20260506160002 | 46 | 302 | 10.0 | 18.0 | 0.00 | 0.00 | 0.00 | 34 | 1017.6 |
| 20260506155404 | 46 | 310 | 10.0 | 18.0 | 0.00 | 0.00 | 0.00 | 33 | 1017.7 |
| 20260506154524 | 46 | 297 | 11.0 | 20.0 | 0.00 | 0.00 | 0.00 | 34 | 1017.8 |
| 20260506153624 | 45 | 295 | 11.0 | 16.0 | 0.00 | 0.00 | 0.00 | 35 | 1017.9 |
| 20260506152703 | 45 | 288 | 11.0 | 16.0 | 0.00 | 0.00 | 0.00 | 36 | 1017.9 |
| 20260506151803 | 45 | 296 | 10.0 | 17.0 | 0.00 | 0.00 | 0.00 | 34 | 1018.0 |
| 20260506150903 | 44 | 299 | 11.0 | 18.0 | 0.00 | 0.00 | 0.00 | 36 | 1018.0 |
| 20260506150003 | 44 | 308 | 10.0 | 14.0 | 0.00 | 0.00 | 0.00 | 34 | 1018.0 |
| 20260506145404 | 44 | 312 | 10.0 | 15.0 | 0.00 | 0.00 | 0.00 | 36 | 1018.1 |
| 20260506144503 | 44 | 296 | 12.0 | 17.0 | 0.00 | 0.00 | 0.00 | 36 | 1018.1 |
| 20260506143603 | 44 | 294 | 13.0 | 20.0 | 0.00 | 0.00 | 0.00 | 36 | 1018.2 |
| 20260506142704 | 43 | 291 | 11.0 | 20.0 | 0.00 | 0.00 | 0.00 | 38 | 1018.1 |
| 20260506141803 | 42 | 311 | 13.0 | 18.0 | 0.00 | 0.00 | 0.00 | 38 | 1018.1 |
| 20260506140858 | 42 | 300 | 12.0 | 17.0 | 0.00 | 0.00 | 0.00 | 39 | 1018.2 |
| 20260506135959 | 42 | 296 | 12.0 | 17.0 | 0.00 | 0.00 | 0.00 | 41 | 1018.3 |
| 20260506135359 | 41 | 304 | 9.0 | 17.0 | 0.00 | 0.00 | 0.00 | 41 | 1018.3 |